sensor_id;sensor_type;location;lat;lon;timestamp;temperature;humidity
33580;DHT22;19909;43.644;-79.438;2022-10-16T00:01:17;23.20;43.50
33580;DHT22;19909;43.644;-79.438;2022-10-16T00:03:44;23.20;43.60
33580;DHT22;19909;43.644;-79.438;2022-10-16T00:06:12;23.20;43.60
33580;DHT22;19909;43.644;-79.438;2022-10-16T00:08:39;23.20;43.60
33580;DHT22;19909;43.644;-79.438;2022-10-16T00:13:48;23.20;43.50
33580;DHT22;19909;43.644;-79.438;2022-10-16T00:16:17;23.20;43.50
33580;DHT22;19909;43.644;-79.438;2022-10-16T00:18:43;23.20;43.50
33580;DHT22;19909;43.644;-79.438;2022-10-16T00:21:13;23.20;43.50
33580;DHT22;19909;43.644;-79.438;2022-10-16T00:23:39;23.10;43.50
33580;DHT22;19909;43.644;-79.438;2022-10-16T00:26:09;23.10;43.40
33580;DHT22;19909;43.644;-79.438;2022-10-16T00:28:37;23.20;43.50
33580;DHT22;19909;43.644;-79.438;2022-10-16T00:31:05;23.20;43.50
33580;DHT22;19909;43.644;-79.438;2022-10-16T00:33:32;23.20;43.50
33580;DHT22;19909;43.644;-79.438;2022-10-16T00:36:00;23.20;43.50
33580;DHT22;19909;43.644;-79.438;2022-10-16T00:38:26;23.10;43.50
33580;DHT22;19909;43.644;-79.438;2022-10-16T00:40:52;23.20;43.40
33580;DHT22;19909;43.644;-79.438;2022-10-16T00:44:41;23.20;43.40
33580;DHT22;19909;43.644;-79.438;2022-10-16T00:46:38;23.20;43.40
33580;DHT22;19909;43.644;-79.438;2022-10-16T00:49:14;23.10;43.50
33580;DHT22;19909;43.644;-79.438;2022-10-16T00:51:49;23.10;43.50
33580;DHT22;19909;43.644;-79.438;2022-10-16T00:54:30;23.10;43.40
33580;DHT22;19909;43.644;-79.438;2022-10-16T00:57:00;23.10;43.40
33580;DHT22;19909;43.644;-79.438;2022-10-16T00:59:32;23.10;43.40
33580;DHT22;19909;43.644;-79.438;2022-10-16T01:02:00;23.10;43.40
33580;DHT22;19909;43.644;-79.438;2022-10-16T01:04:32;23.10;43.50
33580;DHT22;19909;43.644;-79.438;2022-10-16T01:15:01;23.10;43.40
33580;DHT22;19909;43.644;-79.438;2022-10-16T01:17:51;23.10;43.40
33580;DHT22;19909;43.644;-79.438;2022-10-16T01:20:29;23.10;43.40
33580;DHT22;19909;43.644;-79.438;2022-10-16T01:23:21;23.10;43.50
33580;DHT22;19909;43.644;-79.438;2022-10-16T01:28:51;23.10;43.30
33580;DHT22;19909;43.644;-79.438;2022-10-16T01:31:22;23.10;43.40
33580;DHT22;19909;43.644;-79.438;2022-10-16T01:34:04;23.10;43.40
33580;DHT22;19909;43.644;-79.438;2022-10-16T01:36:39;23.10;43.40
33580;DHT22;19909;43.644;-79.438;2022-10-16T01:39:08;23.10;43.90
33580;DHT22;19909;43.644;-79.438;2022-10-16T01:41:40;23.10;43.30
33580;DHT22;19909;43.644;-79.438;2022-10-16T01:44:16;23.10;43.40
33580;DHT22;19909;43.644;-79.438;2022-10-16T01:46:47;23.10;43.40
33580;DHT22;19909;43.644;-79.438;2022-10-16T01:49:14;23.10;43.40
33580;DHT22;19909;43.644;-79.438;2022-10-16T01:51:44;23.10;43.40
33580;DHT22;19909;43.644;-79.438;2022-10-16T01:54:13;23.10;43.40
33580;DHT22;19909;43.644;-79.438;2022-10-16T01:56:40;23.10;43.30
33580;DHT22;19909;43.644;-79.438;2022-10-16T01:59:09;23.10;43.40
33580;DHT22;19909;43.644;-79.438;2022-10-16T02:01:38;23.10;43.40
33580;DHT22;19909;43.644;-79.438;2022-10-16T02:04:16;23.10;43.40
33580;DHT22;19909;43.644;-79.438;2022-10-16T02:06:44;23.10;43.40
33580;DHT22;19909;43.644;-79.438;2022-10-16T02:09:11;23.00;43.30
33580;DHT22;19909;43.644;-79.438;2022-10-16T02:11:37;23.10;43.30
33580;DHT22;19909;43.644;-79.438;2022-10-16T02:14:05;23.10;43.30
33580;DHT22;19909;43.644;-79.438;2022-10-16T02:16:40;23.10;43.40
33580;DHT22;19909;43.644;-79.438;2022-10-16T02:19:07;23.10;43.50
33580;DHT22;19909;43.644;-79.438;2022-10-16T02:21:40;23.00;43.30
33580;DHT22;19909;43.644;-79.438;2022-10-16T02:29:26;23.00;43.30
33580;DHT22;19909;43.644;-79.438;2022-10-16T02:31:59;23.00;43.30
33580;DHT22;19909;43.644;-79.438;2022-10-16T02:34:28;23.00;43.40
33580;DHT22;19909;43.644;-79.438;2022-10-16T02:36:56;23.00;43.30
33580;DHT22;19909;43.644;-79.438;2022-10-16T02:39:24;23.00;43.40
33580;DHT22;19909;43.644;-79.438;2022-10-16T02:41:50;23.00;43.30
33580;DHT22;19909;43.644;-79.438;2022-10-16T02:44:16;23.00;43.40
33580;DHT22;19909;43.644;-79.438;2022-10-16T02:46:43;23.00;43.20
33580;DHT22;19909;43.644;-79.438;2022-10-16T02:49:09;23.00;43.30
33580;DHT22;19909;43.644;-79.438;2022-10-16T02:51:35;23.00;43.30
33580;DHT22;19909;43.644;-79.438;2022-10-16T02:54:02;23.00;43.30
33580;DHT22;19909;43.644;-79.438;2022-10-16T02:56:29;23.00;43.30
33580;DHT22;19909;43.644;-79.438;2022-10-16T02:58:55;23.00;43.20
33580;DHT22;19909;43.644;-79.438;2022-10-16T03:01:22;23.00;43.20
33580;DHT22;19909;43.644;-79.438;2022-10-16T03:03:49;23.00;43.20
33580;DHT22;19909;43.644;-79.438;2022-10-16T03:06:16;23.00;43.30
33580;DHT22;19909;43.644;-79.438;2022-10-16T03:08:42;23.00;43.20
33580;DHT22;19909;43.644;-79.438;2022-10-16T03:11:08;23.00;43.20
33580;DHT22;19909;43.644;-79.438;2022-10-16T03:13:34;23.00;43.20
33580;DHT22;19909;43.644;-79.438;2022-10-16T03:16:00;23.00;43.20
33580;DHT22;19909;43.644;-79.438;2022-10-16T03:18:27;23.00;43.20
33580;DHT22;19909;43.644;-79.438;2022-10-16T03:20:53;23.00;43.20
33580;DHT22;19909;43.644;-79.438;2022-10-16T03:23:20;23.00;43.20
33580;DHT22;19909;43.644;-79.438;2022-10-16T03:25:46;23.00;43.10
33580;DHT22;19909;43.644;-79.438;2022-10-16T03:28:12;22.90;43.10
33580;DHT22;19909;43.644;-79.438;2022-10-16T03:30:42;23.00;43.20
33580;DHT22;19909;43.644;-79.438;2022-10-16T03:33:09;23.00;43.20
33580;DHT22;19909;43.644;-79.438;2022-10-16T03:35:35;23.00;43.20
33580;DHT22;19909;43.644;-79.438;2022-10-16T03:38:01;23.00;43.20
33580;DHT22;19909;43.644;-79.438;2022-10-16T03:40:27;23.00;43.10
33580;DHT22;19909;43.644;-79.438;2022-10-16T03:42:53;23.00;43.10
33580;DHT22;19909;43.644;-79.438;2022-10-16T03:45:24;23.00;43.20
33580;DHT22;19909;43.644;-79.438;2022-10-16T03:47:50;23.00;43.20
33580;DHT22;19909;43.644;-79.438;2022-10-16T03:50:16;22.90;43.10
33580;DHT22;19909;43.644;-79.438;2022-10-16T03:52:42;23.00;43.20
33580;DHT22;19909;43.644;-79.438;2022-10-16T03:55:09;22.90;43.10
33580;DHT22;19909;43.644;-79.438;2022-10-16T03:57:36;23.00;43.10
33580;DHT22;19909;43.644;-79.438;2022-10-16T04:00:03;23.00;43.10
33580;DHT22;19909;43.644;-79.438;2022-10-16T04:02:29;23.00;43.20
33580;DHT22;19909;43.644;-79.438;2022-10-16T04:04:56;23.00;43.20
33580;DHT22;19909;43.644;-79.438;2022-10-16T04:07:22;22.90;43.70
33580;DHT22;19909;43.644;-79.438;2022-10-16T04:09:48;23.00;43.20
33580;DHT22;19909;43.644;-79.438;2022-10-16T04:12:15;23.00;43.10
33580;DHT22;19909;43.644;-79.438;2022-10-16T04:14:41;23.00;43.10
33580;DHT22;19909;43.644;-79.438;2022-10-16T04:17:07;22.90;43.10
33580;DHT22;19909;43.644;-79.438;2022-10-16T04:19:33;23.00;43.20
33580;DHT22;19909;43.644;-79.438;2022-10-16T04:22:00;23.00;43.20
33580;DHT22;19909;43.644;-79.438;2022-10-16T04:24:26;22.90;43.10
33580;DHT22;19909;43.644;-79.438;2022-10-16T04:26:52;22.90;43.10
33580;DHT22;19909;43.644;-79.438;2022-10-16T04:29:18;22.90;43.10
33580;DHT22;19909;43.644;-79.438;2022-10-16T04:31:45;23.00;43.20
33580;DHT22;19909;43.644;-79.438;2022-10-16T04:34:12;22.90;43.70
33580;DHT22;19909;43.644;-79.438;2022-10-16T04:36:38;23.00;43.20
33580;DHT22;19909;43.644;-79.438;2022-10-16T04:39:04;22.90;43.20
33580;DHT22;19909;43.644;-79.438;2022-10-16T04:41:31;22.90;43.10
33580;DHT22;19909;43.644;-79.438;2022-10-16T04:43:57;22.90;43.10
33580;DHT22;19909;43.644;-79.438;2022-10-16T04:46:23;22.90;43.10
33580;DHT22;19909;43.644;-79.438;2022-10-16T04:48:50;22.90;43.10
33580;DHT22;19909;43.644;-79.438;2022-10-16T04:51:16;22.90;42.90
33580;DHT22;19909;43.644;-79.438;2022-10-16T04:53:42;22.90;43.10
33580;DHT22;19909;43.644;-79.438;2022-10-16T04:56:09;22.90;43.10
33580;DHT22;19909;43.644;-79.438;2022-10-16T04:58:35;22.90;43.10
33580;DHT22;19909;43.644;-79.438;2022-10-16T05:01:02;22.90;43.70
33580;DHT22;19909;43.644;-79.438;2022-10-16T05:03:28;22.90;43.10
33580;DHT22;19909;43.644;-79.438;2022-10-16T05:05:54;22.90;43.10
33580;DHT22;19909;43.644;-79.438;2022-10-16T05:08:22;22.90;43.10
33580;DHT22;19909;43.644;-79.438;2022-10-16T05:10:48;22.90;43.10
33580;DHT22;19909;43.644;-79.438;2022-10-16T05:13:15;22.90;43.10
33580;DHT22;19909;43.644;-79.438;2022-10-16T05:15:41;22.90;43.10
33580;DHT22;19909;43.644;-79.438;2022-10-16T05:18:09;22.90;43.10
33580;DHT22;19909;43.644;-79.438;2022-10-16T05:20:35;22.90;43.10
33580;DHT22;19909;43.644;-79.438;2022-10-16T05:23:01;22.90;43.10
33580;DHT22;19909;43.644;-79.438;2022-10-16T05:25:27;22.90;43.10
33580;DHT22;19909;43.644;-79.438;2022-10-16T05:27:54;22.80;43.00
33580;DHT22;19909;43.644;-79.438;2022-10-16T05:30:20;22.90;43.10
33580;DHT22;19909;43.644;-79.438;2022-10-16T05:32:48;22.90;43.10
33580;DHT22;19909;43.644;-79.438;2022-10-16T05:35:16;22.90;43.10
33580;DHT22;19909;43.644;-79.438;2022-10-16T05:37:42;22.90;43.10
33580;DHT22;19909;43.644;-79.438;2022-10-16T05:40:09;22.80;43.00
33580;DHT22;19909;43.644;-79.438;2022-10-16T05:42:36;22.80;43.00
33580;DHT22;19909;43.644;-79.438;2022-10-16T05:45:04;22.80;43.00
33580;DHT22;19909;43.644;-79.438;2022-10-16T05:47:31;22.80;43.10
33580;DHT22;19909;43.644;-79.438;2022-10-16T05:49:57;22.80;43.10
33580;DHT22;19909;43.644;-79.438;2022-10-16T05:52:24;22.80;43.10
33580;DHT22;19909;43.644;-79.438;2022-10-16T05:54:50;22.80;43.00
33580;DHT22;19909;43.644;-79.438;2022-10-16T05:57:16;22.80;43.00
33580;DHT22;19909;43.644;-79.438;2022-10-16T05:59:42;22.80;43.00
33580;DHT22;19909;43.644;-79.438;2022-10-16T06:02:15;22.80;43.00
33580;DHT22;19909;43.644;-79.438;2022-10-16T06:04:41;22.80;43.10
33580;DHT22;19909;43.644;-79.438;2022-10-16T06:07:07;22.80;43.10
33580;DHT22;19909;43.644;-79.438;2022-10-16T06:09:34;22.80;43.00
33580;DHT22;19909;43.644;-79.438;2022-10-16T06:12:00;22.80;43.00
33580;DHT22;19909;43.644;-79.438;2022-10-16T06:14:26;22.80;43.00
33580;DHT22;19909;43.644;-79.438;2022-10-16T06:16:53;22.80;43.00
33580;DHT22;19909;43.644;-79.438;2022-10-16T06:19:19;22.80;43.00
33580;DHT22;19909;43.644;-79.438;2022-10-16T06:21:45;22.80;43.00
33580;DHT22;19909;43.644;-79.438;2022-10-16T06:24:12;22.80;43.00
33580;DHT22;19909;43.644;-79.438;2022-10-16T06:26:39;22.80;43.00
33580;DHT22;19909;43.644;-79.438;2022-10-16T06:29:05;22.80;43.00
33580;DHT22;19909;43.644;-79.438;2022-10-16T06:31:33;22.80;43.00
33580;DHT22;19909;43.644;-79.438;2022-10-16T06:33:59;22.80;43.00
33580;DHT22;19909;43.644;-79.438;2022-10-16T06:36:26;22.80;43.00
33580;DHT22;19909;43.644;-79.438;2022-10-16T06:38:53;22.80;43.00
33580;DHT22;19909;43.644;-79.438;2022-10-16T06:41:23;22.80;43.00
33580;DHT22;19909;43.644;-79.438;2022-10-16T06:43:49;22.80;43.00
33580;DHT22;19909;43.644;-79.438;2022-10-16T06:46:17;22.80;43.00
33580;DHT22;19909;43.644;-79.438;2022-10-16T06:48:44;22.80;43.00
33580;DHT22;19909;43.644;-79.438;2022-10-16T06:51:18;22.80;43.00
33580;DHT22;19909;43.644;-79.438;2022-10-16T06:53:48;22.80;43.00
33580;DHT22;19909;43.644;-79.438;2022-10-16T06:56:23;22.80;43.00
33580;DHT22;19909;43.644;-79.438;2022-10-16T06:58:51;22.80;42.90
33580;DHT22;19909;43.644;-79.438;2022-10-16T07:01:19;22.80;43.00
33580;DHT22;19909;43.644;-79.438;2022-10-16T07:03:47;22.80;43.00
33580;DHT22;19909;43.644;-79.438;2022-10-16T07:06:17;22.70;42.90
33580;DHT22;19909;43.644;-79.438;2022-10-16T07:08:45;22.80;43.00
33580;DHT22;19909;43.644;-79.438;2022-10-16T07:11:14;22.70;42.90
33580;DHT22;19909;43.644;-79.438;2022-10-16T07:13:41;22.80;43.00
33580;DHT22;19909;43.644;-79.438;2022-10-16T07:16:14;22.80;43.00
33580;DHT22;19909;43.644;-79.438;2022-10-16T07:18:41;22.80;43.00
33580;DHT22;19909;43.644;-79.438;2022-10-16T07:21:19;22.80;43.10
33580;DHT22;19909;43.644;-79.438;2022-10-16T07:23:50;22.70;43.00
33580;DHT22;19909;43.644;-79.438;2022-10-16T07:26:17;22.70;42.90
33580;DHT22;19909;43.644;-79.438;2022-10-16T07:28:44;22.70;43.00
33580;DHT22;19909;43.644;-79.438;2022-10-16T07:31:12;22.70;42.90
33580;DHT22;19909;43.644;-79.438;2022-10-16T07:33:40;22.70;43.00
33580;DHT22;19909;43.644;-79.438;2022-10-16T07:36:09;22.70;42.90
33580;DHT22;19909;43.644;-79.438;2022-10-16T07:38:35;22.70;43.00
33580;DHT22;19909;43.644;-79.438;2022-10-16T07:41:05;22.70;42.90
33580;DHT22;19909;43.644;-79.438;2022-10-16T07:43:33;22.70;42.80
33580;DHT22;19909;43.644;-79.438;2022-10-16T07:46:00;22.70;42.90
33580;DHT22;19909;43.644;-79.438;2022-10-16T07:48:32;22.70;42.80
33580;DHT22;19909;43.644;-79.438;2022-10-16T07:50:59;22.70;42.90
33580;DHT22;19909;43.644;-79.438;2022-10-16T07:53:26;22.70;42.90
33580;DHT22;19909;43.644;-79.438;2022-10-16T07:56:03;22.70;42.90
33580;DHT22;19909;43.644;-79.438;2022-10-16T07:58:30;22.70;42.90
33580;DHT22;19909;43.644;-79.438;2022-10-16T08:00:57;22.70;42.90
33580;DHT22;19909;43.644;-79.438;2022-10-16T08:03:27;22.70;42.90
33580;DHT22;19909;43.644;-79.438;2022-10-16T08:05:53;22.70;43.00
33580;DHT22;19909;43.644;-79.438;2022-10-16T08:08:20;22.70;43.00
33580;DHT22;19909;43.644;-79.438;2022-10-16T08:10:46;22.70;42.80
33580;DHT22;19909;43.644;-79.438;2022-10-16T08:13:12;22.70;42.90
33580;DHT22;19909;43.644;-79.438;2022-10-16T08:15:41;22.70;42.90
33580;DHT22;19909;43.644;-79.438;2022-10-16T08:18:09;22.70;42.90
33580;DHT22;19909;43.644;-79.438;2022-10-16T08:20:35;22.70;42.90
33580;DHT22;19909;43.644;-79.438;2022-10-16T08:23:02;22.70;42.90
33580;DHT22;19909;43.644;-79.438;2022-10-16T08:25:29;22.70;42.40
33580;DHT22;19909;43.644;-79.438;2022-10-16T08:27:55;22.70;43.00
33580;DHT22;19909;43.644;-79.438;2022-10-16T08:30:23;22.70;42.90
33580;DHT22;19909;43.644;-79.438;2022-10-16T08:32:51;22.70;42.90
33580;DHT22;19909;43.644;-79.438;2022-10-16T08:35:18;22.70;42.90
33580;DHT22;19909;43.644;-79.438;2022-10-16T08:37:44;22.70;42.90
33580;DHT22;19909;43.644;-79.438;2022-10-16T08:40:24;22.70;43.40
33580;DHT22;19909;43.644;-79.438;2022-10-16T08:51:10;22.70;43.00
33580;DHT22;19909;43.644;-79.438;2022-10-16T08:53:44;22.60;42.90
33580;DHT22;19909;43.644;-79.438;2022-10-16T08:56:13;22.60;42.80
33580;DHT22;19909;43.644;-79.438;2022-10-16T08:58:40;22.70;43.50
33580;DHT22;19909;43.644;-79.438;2022-10-16T09:01:13;22.60;42.90
33580;DHT22;19909;43.644;-79.438;2022-10-16T09:04:04;22.70;43.00
33580;DHT22;19909;43.644;-79.438;2022-10-16T09:20:13;22.60;43.00
33580;DHT22;19909;43.644;-79.438;2022-10-16T09:22:43;22.60;42.90
33580;DHT22;19909;43.644;-79.438;2022-10-16T09:25:16;22.60;42.90
33580;DHT22;19909;43.644;-79.438;2022-10-16T09:27:48;22.70;43.00
33580;DHT22;19909;43.644;-79.438;2022-10-16T09:30:19;22.60;42.90
33580;DHT22;19909;43.644;-79.438;2022-10-16T09:32:48;22.60;42.90
33580;DHT22;19909;43.644;-79.438;2022-10-16T09:35:35;22.60;43.00
33580;DHT22;19909;43.644;-79.438;2022-10-16T09:38:02;22.60;43.50
33580;DHT22;19909;43.644;-79.438;2022-10-16T09:40:37;22.60;42.90
33580;DHT22;19909;43.644;-79.438;2022-10-16T09:43:22;22.60;42.90
33580;DHT22;19909;43.644;-79.438;2022-10-16T09:46:02;22.60;42.90
33580;DHT22;19909;43.644;-79.438;2022-10-16T09:48:39;22.60;42.90
33580;DHT22;19909;43.644;-79.438;2022-10-16T09:51:23;22.60;43.00
33580;DHT22;19909;43.644;-79.438;2022-10-16T09:54:01;22.60;42.90
33580;DHT22;19909;43.644;-79.438;2022-10-16T09:56:33;22.60;42.90
33580;DHT22;19909;43.644;-79.438;2022-10-16T09:59:02;22.60;42.90
33580;DHT22;19909;43.644;-79.438;2022-10-16T10:01:43;22.60;43.00
33580;DHT22;19909;43.644;-79.438;2022-10-16T10:04:10;22.60;43.00
33580;DHT22;19909;43.644;-79.438;2022-10-16T10:06:47;22.60;43.00
33580;DHT22;19909;43.644;-79.438;2022-10-16T10:11:58;22.60;42.90
33580;DHT22;19909;43.644;-79.438;2022-10-16T10:14:39;22.60;42.90
33580;DHT22;19909;43.644;-79.438;2022-10-16T10:19:50;22.60;43.00
33580;DHT22;19909;43.644;-79.438;2022-10-16T10:28:15;22.60;42.90
33580;DHT22;19909;43.644;-79.438;2022-10-16T10:51:08;22.60;43.00
33580;DHT22;19909;43.644;-79.438;2022-10-16T10:54:01;22.60;43.00
33580;DHT22;19909;43.644;-79.438;2022-10-16T11:02:21;22.50;43.00
33580;DHT22;19909;43.644;-79.438;2022-10-16T11:05:23;22.60;43.00
33580;DHT22;19909;43.644;-79.438;2022-10-16T11:08:16;22.50;43.00
33580;DHT22;19909;43.644;-79.438;2022-10-16T11:19:37;22.50;42.90
33580;DHT22;19909;43.644;-79.438;2022-10-16T11:25:21;22.50;42.90
33580;DHT22;19909;43.644;-79.438;2022-10-16T11:30:27;22.50;42.90
33580;DHT22;19909;43.644;-79.438;2022-10-16T11:38:13;22.50;42.90
33580;DHT22;19909;43.644;-79.438;2022-10-16T11:40:42;22.50;42.80
33580;DHT22;19909;43.644;-79.438;2022-10-16T11:43:21;22.50;42.90
33580;DHT22;19909;43.644;-79.438;2022-10-16T11:45:56;22.50;42.80
33580;DHT22;19909;43.644;-79.438;2022-10-16T11:51:08;22.50;42.90
33580;DHT22;19909;43.644;-79.438;2022-10-16T11:56:35;22.50;42.90
33580;DHT22;19909;43.644;-79.438;2022-10-16T11:59:14;22.50;42.80
33580;DHT22;19909;43.644;-79.438;2022-10-16T12:02:03;22.50;42.80
33580;DHT22;19909;43.644;-79.438;2022-10-16T12:04:53;22.50;42.90
33580;DHT22;19909;43.644;-79.438;2022-10-16T12:07:34;22.50;42.90
33580;DHT22;19909;43.644;-79.438;2022-10-16T12:10:23;22.50;42.80
33580;DHT22;19909;43.644;-79.438;2022-10-16T12:12:49;22.50;43.00
33580;DHT22;19909;43.644;-79.438;2022-10-16T12:17:48;22.50;42.90
33580;DHT22;19909;43.644;-79.438;2022-10-16T12:20:19;22.50;43.00
33580;DHT22;19909;43.644;-79.438;2022-10-16T12:22:53;22.50;42.90
33580;DHT22;19909;43.644;-79.438;2022-10-16T12:25:57;22.50;42.80
33580;DHT22;19909;43.644;-79.438;2022-10-16T12:28:29;22.50;42.90
33580;DHT22;19909;43.644;-79.438;2022-10-16T12:31:03;22.50;42.90
33580;DHT22;19909;43.644;-79.438;2022-10-16T12:33:33;22.50;43.00
33580;DHT22;19909;43.644;-79.438;2022-10-16T12:36:08;22.50;43.00
33580;DHT22;19909;43.644;-79.438;2022-10-16T12:38:54;22.50;42.90
33580;DHT22;19909;43.644;-79.438;2022-10-16T12:41:34;22.50;42.90
33580;DHT22;19909;43.644;-79.438;2022-10-16T12:44:02;22.50;42.90
33580;DHT22;19909;43.644;-79.438;2022-10-16T12:46:35;22.50;42.90
33580;DHT22;19909;43.644;-79.438;2022-10-16T12:51:40;22.50;42.90
33580;DHT22;19909;43.644;-79.438;2022-10-16T12:54:27;22.50;42.90
33580;DHT22;19909;43.644;-79.438;2022-10-16T12:59:48;22.50;42.80
33580;DHT22;19909;43.644;-79.438;2022-10-16T13:05:21;22.50;42.90
33580;DHT22;19909;43.644;-79.438;2022-10-16T13:27:58;22.40;42.90
33580;DHT22;19909;43.644;-79.438;2022-10-16T13:30:50;22.40;42.90
33580;DHT22;19909;43.644;-79.438;2022-10-16T13:33:51;22.50;43.10
33580;DHT22;19909;43.644;-79.438;2022-10-16T13:36:23;22.50;43.00
33580;DHT22;19909;43.644;-79.438;2022-10-16T13:41:35;22.40;42.90
33580;DHT22;19909;43.644;-79.438;2022-10-16T13:44:01;22.50;43.00
33580;DHT22;19909;43.644;-79.438;2022-10-16T13:46:30;22.40;42.90
33580;DHT22;19909;43.644;-79.438;2022-10-16T13:49:03;22.50;43.00
33580;DHT22;19909;43.644;-79.438;2022-10-16T13:51:30;22.50;43.00
33580;DHT22;19909;43.644;-79.438;2022-10-16T13:53:57;22.40;42.90
33580;DHT22;19909;43.644;-79.438;2022-10-16T13:56:27;22.40;42.90
33580;DHT22;19909;43.644;-79.438;2022-10-16T14:01:41;22.50;43.00
33580;DHT22;19909;43.644;-79.438;2022-10-16T14:04:10;22.40;42.90
33580;DHT22;19909;43.644;-79.438;2022-10-16T14:06:42;22.40;42.90
33580;DHT22;19909;43.644;-79.438;2022-10-16T14:09:29;22.40;42.90
33580;DHT22;19909;43.644;-79.438;2022-10-16T14:12:10;22.40;42.90
33580;DHT22;19909;43.644;-79.438;2022-10-16T14:14:54;22.40;42.90
33580;DHT22;19909;43.644;-79.438;2022-10-16T14:17:26;22.40;42.90
33580;DHT22;19909;43.644;-79.438;2022-10-16T14:19:58;22.40;43.00
33580;DHT22;19909;43.644;-79.438;2022-10-16T14:22:39;22.40;42.90
33580;DHT22;19909;43.644;-79.438;2022-10-16T14:30:36;22.40;43.00
33580;DHT22;19909;43.644;-79.438;2022-10-16T14:33:06;22.50;43.00
33580;DHT22;19909;43.644;-79.438;2022-10-16T14:35:35;22.50;43.00
33580;DHT22;19909;43.644;-79.438;2022-10-16T14:38:05;22.40;42.90
33580;DHT22;19909;43.644;-79.438;2022-10-16T14:40:36;22.40;42.90
33580;DHT22;19909;43.644;-79.438;2022-10-16T14:43:04;22.40;43.00
33580;DHT22;19909;43.644;-79.438;2022-10-16T14:45:33;22.40;43.00
33580;DHT22;19909;43.644;-79.438;2022-10-16T14:48:06;22.40;43.00
33580;DHT22;19909;43.644;-79.438;2022-10-16T14:50:40;22.40;43.00
33580;DHT22;19909;43.644;-79.438;2022-10-16T14:53:12;22.40;42.90
33580;DHT22;19909;43.644;-79.438;2022-10-16T14:55:41;22.40;42.90
33580;DHT22;19909;43.644;-79.438;2022-10-16T14:58:16;22.40;42.90
33580;DHT22;19909;43.644;-79.438;2022-10-16T15:00:43;22.40;43.00
33580;DHT22;19909;43.644;-79.438;2022-10-16T15:03:10;22.40;43.00
33580;DHT22;19909;43.644;-79.438;2022-10-16T15:05:38;22.40;43.00
33580;DHT22;19909;43.644;-79.438;2022-10-16T15:08:05;22.40;43.00
33580;DHT22;19909;43.644;-79.438;2022-10-16T15:10:33;22.40;42.90
33580;DHT22;19909;43.644;-79.438;2022-10-16T15:13:01;22.40;43.00
33580;DHT22;19909;43.644;-79.438;2022-10-16T15:15:40;22.40;43.00
33580;DHT22;19909;43.644;-79.438;2022-10-16T15:18:07;22.40;43.00
33580;DHT22;19909;43.644;-79.438;2022-10-16T15:20:35;22.40;43.00
33580;DHT22;19909;43.644;-79.438;2022-10-16T15:23:04;22.40;43.00
33580;DHT22;19909;43.644;-79.438;2022-10-16T15:28:00;22.40;43.00
33580;DHT22;19909;43.644;-79.438;2022-10-16T15:30:27;22.40;43.00
33580;DHT22;19909;43.644;-79.438;2022-10-16T15:32:54;22.40;43.10
33580;DHT22;19909;43.644;-79.438;2022-10-16T15:35:21;22.40;43.00
33580;DHT22;19909;43.644;-79.438;2022-10-16T15:37:48;22.40;43.10
33580;DHT22;19909;43.644;-79.438;2022-10-16T15:40:16;22.30;43.10
33580;DHT22;19909;43.644;-79.438;2022-10-16T15:42:42;22.40;43.00
33580;DHT22;19909;43.644;-79.438;2022-10-16T15:45:10;22.40;43.00
33580;DHT22;19909;43.644;-79.438;2022-10-16T15:47:37;22.40;43.10
33580;DHT22;19909;43.644;-79.438;2022-10-16T15:50:04;22.40;43.10
33580;DHT22;19909;43.644;-79.438;2022-10-16T15:52:34;22.40;43.10
33580;DHT22;19909;43.644;-79.438;2022-10-16T15:55:00;22.40;43.10
33580;DHT22;19909;43.644;-79.438;2022-10-16T15:57:28;22.30;43.00
33580;DHT22;19909;43.644;-79.438;2022-10-16T15:59:55;22.40;43.10
33580;DHT22;19909;43.644;-79.438;2022-10-16T16:02:21;22.40;43.20
33580;DHT22;19909;43.644;-79.438;2022-10-16T16:04:48;22.40;43.10
33580;DHT22;19909;43.644;-79.438;2022-10-16T16:07:14;22.40;43.20
33580;DHT22;19909;43.644;-79.438;2022-10-16T16:09:40;22.40;43.10
33580;DHT22;19909;43.644;-79.438;2022-10-16T16:12:07;22.30;43.10
33580;DHT22;19909;43.644;-79.438;2022-10-16T16:14:33;22.40;43.20
33580;DHT22;19909;43.644;-79.438;2022-10-16T16:17:00;22.40;43.10
33580;DHT22;19909;43.644;-79.438;2022-10-16T16:19:26;22.40;43.20
33580;DHT22;19909;43.644;-79.438;2022-10-16T16:21:52;22.40;43.20
33580;DHT22;19909;43.644;-79.438;2022-10-16T16:24:18;22.40;43.10
33580;DHT22;19909;43.644;-79.438;2022-10-16T16:26:45;22.30;43.20
33580;DHT22;19909;43.644;-79.438;2022-10-16T16:29:13;22.30;43.20
33580;DHT22;19909;43.644;-79.438;2022-10-16T16:31:41;22.30;43.20
33580;DHT22;19909;43.644;-79.438;2022-10-16T16:34:08;22.40;43.20
33580;DHT22;19909;43.644;-79.438;2022-10-16T16:36:35;22.40;43.30
33580;DHT22;19909;43.644;-79.438;2022-10-16T16:39:02;22.40;43.30
33580;DHT22;19909;43.644;-79.438;2022-10-16T16:41:29;22.30;43.20
33580;DHT22;19909;43.644;-79.438;2022-10-16T16:44:04;22.40;43.20
33580;DHT22;19909;43.644;-79.438;2022-10-16T16:46:32;22.40;43.30
33580;DHT22;19909;43.644;-79.438;2022-10-16T16:48:59;22.40;43.30
33580;DHT22;19909;43.644;-79.438;2022-10-16T16:51:26;22.30;43.30
33580;DHT22;19909;43.644;-79.438;2022-10-16T16:53:53;22.40;43.30
33580;DHT22;19909;43.644;-79.438;2022-10-16T16:56:21;22.30;43.30
33580;DHT22;19909;43.644;-79.438;2022-10-16T16:58:49;22.30;43.20
33580;DHT22;19909;43.644;-79.438;2022-10-16T17:01:16;22.40;43.40
33580;DHT22;19909;43.644;-79.438;2022-10-16T17:03:44;22.30;43.30
33580;DHT22;19909;43.644;-79.438;2022-10-16T17:06:12;22.30;43.40
33580;DHT22;19909;43.644;-79.438;2022-10-16T17:08:39;22.30;43.40
33580;DHT22;19909;43.644;-79.438;2022-10-16T17:11:10;22.30;43.40
33580;DHT22;19909;43.644;-79.438;2022-10-16T17:13:37;22.30;43.40
33580;DHT22;19909;43.644;-79.438;2022-10-16T17:16:05;22.40;43.40
33580;DHT22;19909;43.644;-79.438;2022-10-16T17:18:32;22.40;43.50
33580;DHT22;19909;43.644;-79.438;2022-10-16T17:21:03;22.30;43.40
33580;DHT22;19909;43.644;-79.438;2022-10-16T17:23:30;22.30;43.40
33580;DHT22;19909;43.644;-79.438;2022-10-16T17:26:06;22.40;43.40
33580;DHT22;19909;43.644;-79.438;2022-10-16T17:28:34;22.30;43.40
33580;DHT22;19909;43.644;-79.438;2022-10-16T17:33:37;22.40;43.60
33580;DHT22;19909;43.644;-79.438;2022-10-16T17:36:03;22.30;43.50
33580;DHT22;19909;43.644;-79.438;2022-10-16T17:38:30;22.30;43.50
33580;DHT22;19909;43.644;-79.438;2022-10-16T17:40:56;22.30;43.50
33580;DHT22;19909;43.644;-79.438;2022-10-16T17:43:22;22.40;44.10
33580;DHT22;19909;43.644;-79.438;2022-10-16T17:45:49;22.30;43.50
33580;DHT22;19909;43.644;-79.438;2022-10-16T17:48:15;22.30;43.60
33580;DHT22;19909;43.644;-79.438;2022-10-16T17:50:42;22.30;43.60